Аэропорт: Борисполь. Киев

ICAO: UKBB

METAR:
2020-06-01 03:00:00
UKBB 010300Z 01006MPS 9999 -RA OVC007 10/10 Q1006 R36R/290050 NOSIG
METAR:
2020-05-31 23:02:00
TAF UKBB 312302Z 0100/0124 VRB01MPS 6000 BKN010 TEMPO 0100/0105 1000 -SHRA BR BKN002 SCT012CB BECMG 0105/0107 02006G12MPS TEMPO 0107/0118 36010G16MPS 2100 -SHRA BKN004 BKN015CB PROB40 TEMPO 0107/0118 1200 TSRA BKN012CB